sensor_id;sensor_type;location;lat;lon;timestamp;pressure;altitude;pressure_sealevel;temperature;humidity
40285;BME280;25997;50.214;19.354;2024-01-11T00:01:54;98910.28;;;-5.55;45.16
40285;BME280;25997;50.214;19.354;2024-01-11T00:04:56;98894.69;;;-5.82;45.63
40285;BME280;25997;50.214;19.354;2024-01-11T00:08:00;98896.22;;;-5.75;45.69
40285;BME280;25997;50.214;19.354;2024-01-11T00:11:03;98894.16;;;-5.62;44.92
40285;BME280;25997;50.214;19.354;2024-01-11T00:14:06;98900.25;;;-5.45;44.46
40285;BME280;25997;50.214;19.354;2024-01-11T00:17:09;98905.69;;;-5.33;44.01
40285;BME280;25997;50.214;19.354;2024-01-11T00:20:11;98906.13;;;-5.28;44.39
40285;BME280;25997;50.214;19.354;2024-01-11T00:23:15;98892.16;;;-5.32;44.41
40285;BME280;25997;50.214;19.354;2024-01-11T00:26:17;98885.38;;;-5.40;44.79
40285;BME280;25997;50.214;19.354;2024-01-11T00:29:20;98884.41;;;-5.58;45.20
40285;BME280;25997;50.214;19.354;2024-01-11T00:32:22;98885.91;;;-5.60;45.22
40285;BME280;25997;50.214;19.354;2024-01-11T00:35:25;98881.44;;;-5.54;44.83
40285;BME280;25997;50.214;19.354;2024-01-11T00:38:29;98877.50;;;-5.50;44.88
40285;BME280;25997;50.214;19.354;2024-01-11T00:41:31;98867.38;;;-5.66;45.11
40285;BME280;25997;50.214;19.354;2024-01-11T00:44:34;98863.91;;;-5.66;44.69
40285;BME280;25997;50.214;19.354;2024-01-11T00:47:37;98866.91;;;-5.79;44.95
40285;BME280;25997;50.214;19.354;2024-01-11T00:50:39;98854.19;;;-6.03;45.54
40285;BME280;25997;50.214;19.354;2024-01-11T00:53:44;98842.16;;;-6.37;46.53
40285;BME280;25997;50.214;19.354;2024-01-11T00:56:47;98845.44;;;-6.38;46.66
40285;BME280;25997;50.214;19.354;2024-01-11T00:59:50;98841.00;;;-6.32;46.33
40285;BME280;25997;50.214;19.354;2024-01-11T01:02:52;98848.19;;;-6.36;46.57
40285;BME280;25997;50.214;19.354;2024-01-11T01:05:55;98850.72;;;-6.36;46.37
40285;BME280;25997;50.214;19.354;2024-01-11T01:08:59;98855.41;;;-6.32;45.78
40285;BME280;25997;50.214;19.354;2024-01-11T01:12:02;98853.19;;;-6.29;46.19
40285;BME280;25997;50.214;19.354;2024-01-11T01:15:06;98860.22;;;-6.27;46.17
40285;BME280;25997;50.214;19.354;2024-01-11T01:18:08;98851.81;;;-6.26;46.36
40285;BME280;25997;50.214;19.354;2024-01-11T01:21:11;98860.66;;;-6.31;46.47
40285;BME280;25997;50.214;19.354;2024-01-11T01:24:15;98858.56;;;-6.26;46.13
40285;BME280;25997;50.214;19.354;2024-01-11T01:27:17;98851.34;;;-6.30;46.59
40285;BME280;25997;50.214;19.354;2024-01-11T01:30:20;98850.66;;;-6.21;46.52
40285;BME280;25997;50.214;19.354;2024-01-11T01:33:22;98856.28;;;-6.07;46.06
40285;BME280;25997;50.214;19.354;2024-01-11T01:36:25;98850.28;;;-5.99;45.98
40285;BME280;25997;50.214;19.354;2024-01-11T01:39:29;98846.88;;;-5.91;45.61
40285;BME280;25997;50.214;19.354;2024-01-11T01:42:31;98842.63;;;-5.99;45.93
40285;BME280;25997;50.214;19.354;2024-01-11T01:45:34;98833.03;;;-5.93;45.74
40285;BME280;25997;50.214;19.354;2024-01-11T01:48:36;98829.22;;;-6.05;46.01
40285;BME280;25997;50.214;19.354;2024-01-11T01:51:39;98831.28;;;-6.19;46.38
40285;BME280;25997;50.214;19.354;2024-01-11T01:54:43;98835.97;;;-6.06;46.08
40285;BME280;25997;50.214;19.354;2024-01-11T01:57:47;98830.41;;;-6.10;46.30
40285;BME280;25997;50.214;19.354;2024-01-11T02:00:51;98828.88;;;-6.17;46.39
40285;BME280;25997;50.214;19.354;2024-01-11T02:03:54;98825.28;;;-6.10;46.15
40285;BME280;25997;50.214;19.354;2024-01-11T02:06:57;98820.50;;;-6.07;46.32
40285;BME280;25997;50.214;19.354;2024-01-11T02:10:02;98813.56;;;-6.08;46.12
40285;BME280;25997;50.214;19.354;2024-01-11T02:13:05;98805.16;;;-6.07;45.99
40285;BME280;25997;50.214;19.354;2024-01-11T02:16:07;98811.66;;;-6.02;45.62
40285;BME280;25997;50.214;19.354;2024-01-11T02:19:13;98815.84;;;-6.03;45.44
40285;BME280;25997;50.214;19.354;2024-01-11T02:22:20;98818.84;;;-6.07;45.63
40285;BME280;25997;50.214;19.354;2024-01-11T02:25:25;98803.94;;;-6.11;45.38
40285;BME280;25997;50.214;19.354;2024-01-11T02:28:27;98816.88;;;-6.18;45.64
40285;BME280;25997;50.214;19.354;2024-01-11T02:31:30;98798.34;;;-6.16;45.55
40285;BME280;25997;50.214;19.354;2024-01-11T02:34:33;98795.53;;;-6.10;45.20
40285;BME280;25997;50.214;19.354;2024-01-11T02:37:37;98792.72;;;-6.04;45.25
40285;BME280;25997;50.214;19.354;2024-01-11T02:40:41;98804.47;;;-5.98;44.97
40285;BME280;25997;50.214;19.354;2024-01-11T02:43:47;98804.31;;;-5.91;44.78
40285;BME280;25997;50.214;19.354;2024-01-11T02:46:50;98796.22;;;-5.87;44.67
40285;BME280;25997;50.214;19.354;2024-01-11T02:49:52;98792.56;;;-5.89;44.69
40285;BME280;25997;50.214;19.354;2024-01-11T02:52:55;98806.72;;;-5.84;44.80
40285;BME280;25997;50.214;19.354;2024-01-11T02:55:58;98802.09;;;-5.71;44.46
40285;BME280;25997;50.214;19.354;2024-01-11T02:59:01;98807.22;;;-5.62;44.35
40285;BME280;25997;50.214;19.354;2024-01-11T03:02:04;98805.44;;;-5.63;44.26
40285;BME280;25997;50.214;19.354;2024-01-11T03:05:06;98802.72;;;-5.65;44.30
40285;BME280;25997;50.214;19.354;2024-01-11T03:08:09;98796.13;;;-5.63;44.06
40285;BME280;25997;50.214;19.354;2024-01-11T03:11:13;98788.44;;;-5.71;44.18
40285;BME280;25997;50.214;19.354;2024-01-11T03:14:15;98776.47;;;-6.05;45.01
40285;BME280;25997;50.214;19.354;2024-01-11T03:17:18;98775.84;;;-6.11;45.37
40285;BME280;25997;50.214;19.354;2024-01-11T03:20:20;98768.91;;;-6.21;45.34
40285;BME280;25997;50.214;19.354;2024-01-11T03:23:25;98772.19;;;-6.30;45.46
40285;BME280;25997;50.214;19.354;2024-01-11T03:26:29;98768.06;;;-6.45;46.04
40285;BME280;25997;50.214;19.354;2024-01-11T03:29:31;98776.28;;;-6.56;46.13
40285;BME280;25997;50.214;19.354;2024-01-11T03:32:34;98778.75;;;-6.41;45.78
40285;BME280;25997;50.214;19.354;2024-01-11T03:35:37;98784.03;;;-6.31;45.46
40285;BME280;25997;50.214;19.354;2024-01-11T03:38:41;98778.09;;;-6.14;44.80
40285;BME280;25997;50.214;19.354;2024-01-11T03:41:45;98756.72;;;-6.32;45.41
40285;BME280;25997;50.214;19.354;2024-01-11T03:44:48;98743.81;;;-6.57;45.85
40285;BME280;25997;50.214;19.354;2024-01-11T03:47:50;98742.63;;;-6.61;46.29
40285;BME280;25997;50.214;19.354;2024-01-11T03:50:53;98753.31;;;-6.48;46.12
40285;BME280;25997;50.214;19.354;2024-01-11T03:53:55;98751.47;;;-6.57;46.32
40285;BME280;25997;50.214;19.354;2024-01-11T03:56:59;98747.22;;;-6.74;46.86
40285;BME280;25997;50.214;19.354;2024-01-11T04:00:02;98760.38;;;-6.54;46.40
40285;BME280;25997;50.214;19.354;2024-01-11T04:03:06;98758.19;;;-6.34;45.74
40285;BME280;25997;50.214;19.354;2024-01-11T04:06:09;98756.59;;;-6.25;45.61
40285;BME280;25997;50.214;19.354;2024-01-11T04:09:11;98759.53;;;-6.37;45.97
40285;BME280;25997;50.214;19.354;2024-01-11T04:12:15;98751.72;;;-6.39;45.53
40285;BME280;25997;50.214;19.354;2024-01-11T04:15:18;98739.56;;;-6.74;46.64
40285;BME280;25997;50.214;19.354;2024-01-11T04:18:21;98736.09;;;-6.74;46.79
40285;BME280;25997;50.214;19.354;2024-01-11T04:21:24;98743.31;;;-6.70;46.86
40285;BME280;25997;50.214;19.354;2024-01-11T04:24:29;98748.34;;;-6.55;46.12
40285;BME280;25997;50.214;19.354;2024-01-11T04:27:33;98751.84;;;-6.46;45.99
40285;BME280;25997;50.214;19.354;2024-01-11T04:30:35;98753.31;;;-6.48;45.75
40285;BME280;25997;50.214;19.354;2024-01-11T04:33:40;98754.75;;;-6.67;46.23
40285;BME280;25997;50.214;19.354;2024-01-11T04:36:42;98753.31;;;-6.56;45.87
40285;BME280;25997;50.214;19.354;2024-01-11T04:39:45;98735.28;;;-6.58;45.82
40285;BME280;25997;50.214;19.354;2024-01-11T04:42:49;98737.22;;;-6.88;46.46
40285;BME280;25997;50.214;19.354;2024-01-11T04:45:51;98748.13;;;-6.73;46.36
40285;BME280;25997;50.214;19.354;2024-01-11T04:48:54;98753.31;;;-6.48;45.49
40285;BME280;25997;50.214;19.354;2024-01-11T04:51:56;98728.53;;;-6.49;45.49
40285;BME280;25997;50.214;19.354;2024-01-11T04:54:59;98728.50;;;-6.57;45.52
40285;BME280;25997;50.214;19.354;2024-01-11T04:58:03;98737.50;;;-6.61;45.78
40285;BME280;25997;50.214;19.354;2024-01-11T05:01:06;98732.13;;;-6.88;46.30
40285;BME280;25997;50.214;19.354;2024-01-11T05:04:09;98728.44;;;-6.74;45.48
40285;BME280;25997;50.214;19.354;2024-01-11T05:07:11;98719.25;;;-6.81;45.79
40285;BME280;25997;50.214;19.354;2024-01-11T05:10:14;98710.66;;;-7.14;46.85
40285;BME280;25997;50.214;19.354;2024-01-11T05:13:18;98702.00;;;-7.08;46.62
40285;BME280;25997;50.214;19.354;2024-01-11T05:16:21;98700.19;;;-7.09;46.43
40285;BME280;25997;50.214;19.354;2024-01-11T05:19:24;98696.41;;;-7.12;46.55
40285;BME280;25997;50.214;19.354;2024-01-11T05:22:27;98693.25;;;-7.18;46.44
40285;BME280;25997;50.214;19.354;2024-01-11T05:25:29;98683.47;;;-7.22;46.69
40285;BME280;25997;50.214;19.354;2024-01-11T05:28:35;98690.38;;;-7.21;46.81
40285;BME280;25997;50.214;19.354;2024-01-11T05:31:39;98707.00;;;-7.01;46.39
40285;BME280;25997;50.214;19.354;2024-01-11T05:34:41;98703.59;;;-6.84;45.92
40285;BME280;25997;50.214;19.354;2024-01-11T05:37:44;98708.56;;;-6.85;45.76
40285;BME280;25997;50.214;19.354;2024-01-11T05:40:47;98711.13;;;-6.85;45.78
40285;BME280;25997;50.214;19.354;2024-01-11T05:43:50;98720.41;;;-6.86;45.87
40285;BME280;25997;50.214;19.354;2024-01-11T05:46:53;98707.09;;;-6.75;45.66
40285;BME280;25997;50.214;19.354;2024-01-11T05:49:56;98701.63;;;-6.87;45.75
40285;BME280;25997;50.214;19.354;2024-01-11T05:52:58;98684.25;;;-7.15;46.47
40285;BME280;25997;50.214;19.354;2024-01-11T05:56:01;98667.66;;;-7.03;46.24
40285;BME280;25997;50.214;19.354;2024-01-11T05:59:05;98680.56;;;-7.01;46.06
40285;BME280;25997;50.214;19.354;2024-01-11T06:02:07;98702.72;;;-6.84;45.68
40285;BME280;25997;50.214;19.354;2024-01-11T06:05:10;98698.88;;;-6.72;45.22
40285;BME280;25997;50.214;19.354;2024-01-11T06:08:13;98709.97;;;-6.72;45.15
40285;BME280;25997;50.214;19.354;2024-01-11T06:11:16;98724.38;;;-6.72;44.93
40285;BME280;25997;50.214;19.354;2024-01-11T06:14:20;98713.13;;;-6.74;45.12
40285;BME280;25997;50.214;19.354;2024-01-11T06:17:23;98697.44;;;-6.86;45.31
40285;BME280;25997;50.214;19.354;2024-01-11T06:20:25;98691.94;;;-7.06;45.99
40285;BME280;25997;50.214;19.354;2024-01-11T06:23:28;98700.53;;;-6.97;45.88
40285;BME280;25997;50.214;19.354;2024-01-11T06:26:30;98690.97;;;-6.91;45.95
40285;BME280;25997;50.214;19.354;2024-01-11T06:29:34;98674.25;;;-7.05;46.14
40285;BME280;25997;50.214;19.354;2024-01-11T06:32:37;98675.16;;;-7.04;46.30
40285;BME280;25997;50.214;19.354;2024-01-11T06:35:39;98674.56;;;-7.02;46.32
40285;BME280;25997;50.214;19.354;2024-01-11T06:38:42;98659.97;;;-7.35;47.03
40285;BME280;25997;50.214;19.354;2024-01-11T06:41:44;98643.63;;;-7.37;47.21
40285;BME280;25997;50.214;19.354;2024-01-11T06:44:48;98622.19;;;-7.31;46.93
40285;BME280;25997;50.214;19.354;2024-01-11T06:47:50;98599.75;;;-7.50;47.35
40285;BME280;25997;50.214;19.354;2024-01-11T06:50:53;98604.03;;;-7.42;47.33
40285;BME280;25997;50.214;19.354;2024-01-11T06:53:56;98603.19;;;-7.26;46.50
40285;BME280;25997;50.214;19.354;2024-01-11T06:56:58;98599.41;;;-7.38;46.80
40285;BME280;25997;50.214;19.354;2024-01-11T07:00:02;98608.28;;;-7.26;47.01
40285;BME280;25997;50.214;19.354;2024-01-11T07:03:05;98614.00;;;-7.20;46.86
40285;BME280;25997;50.214;19.354;2024-01-11T07:06:07;98613.09;;;-6.88;46.34
40285;BME280;25997;50.214;19.354;2024-01-11T07:09:10;98609.72;;;-7.04;46.73
40285;BME280;25997;50.214;19.354;2024-01-11T07:12:13;98612.56;;;-6.68;46.03
40285;BME280;25997;50.214;19.354;2024-01-11T07:15:17;98604.19;;;-6.50;45.63
40285;BME280;25997;50.214;19.354;2024-01-11T07:18:19;98584.34;;;-6.61;45.92
40285;BME280;25997;50.214;19.354;2024-01-11T07:21:22;98588.06;;;-6.74;46.76
40285;BME280;25997;50.214;19.354;2024-01-11T07:24:30;98594.09;;;-6.57;46.38
40285;BME280;25997;50.214;19.354;2024-01-11T07:27:38;98592.91;;;-6.52;46.48
40285;BME280;25997;50.214;19.354;2024-01-11T07:30:42;98605.25;;;-6.22;46.42
40285;BME280;25997;50.214;19.354;2024-01-11T07:33:45;98594.91;;;-5.89;46.00
40285;BME280;25997;50.214;19.354;2024-01-11T07:36:47;98604.75;;;-5.41;45.49
40285;BME280;25997;50.214;19.354;2024-01-11T07:39:49;98611.97;;;-5.01;45.11
40285;BME280;25997;50.214;19.354;2024-01-11T07:42:52;98638.00;;;-4.61;44.83
40285;BME280;25997;50.214;19.354;2024-01-11T07:45:56;98649.19;;;-4.42;43.49
40285;BME280;25997;50.214;19.354;2024-01-11T07:48:59;98635.81;;;-4.21;43.80
40285;BME280;25997;50.214;19.354;2024-01-11T07:52:01;98619.69;;;-4.01;43.34
40285;BME280;25997;50.214;19.354;2024-01-11T07:55:05;98603.94;;;-3.96;43.50
40285;BME280;25997;50.214;19.354;2024-01-11T07:58:08;98590.31;;;-4.05;43.30
40285;BME280;25997;50.214;19.354;2024-01-11T08:01:15;98588.19;;;-4.00;43.63
40285;BME280;25997;50.214;19.354;2024-01-11T08:04:18;98577.22;;;-4.08;43.94
40285;BME280;25997;50.214;19.354;2024-01-11T08:07:22;98564.13;;;-4.29;44.34
40285;BME280;25997;50.214;19.354;2024-01-11T08:10:24;98553.03;;;-4.38;44.77
40285;BME280;25997;50.214;19.354;2024-01-11T08:13:27;98567.56;;;-4.47;45.03
40285;BME280;25997;50.214;19.354;2024-01-11T08:16:33;98556.34;;;-4.39;44.31
40285;BME280;25997;50.214;19.354;2024-01-11T08:19:36;98562.25;;;-4.03;44.30
40285;BME280;25997;50.214;19.354;2024-01-11T08:22:39;98559.53;;;-3.86;44.02
40285;BME280;25997;50.214;19.354;2024-01-11T08:25:41;98564.03;;;-3.83;43.47
40285;BME280;25997;50.214;19.354;2024-01-11T08:28:44;98556.97;;;-3.57;43.28
40285;BME280;25997;50.214;19.354;2024-01-11T08:31:48;98545.84;;;-3.48;43.44
40285;BME280;25997;50.214;19.354;2024-01-11T08:34:50;98542.72;;;-3.64;43.11
40285;BME280;25997;50.214;19.354;2024-01-11T08:37:53;98537.16;;;-3.97;44.08
40285;BME280;25997;50.214;19.354;2024-01-11T08:40:55;98544.38;;;-3.64;43.88
40285;BME280;25997;50.214;19.354;2024-01-11T08:43:59;98538.69;;;-3.42;43.66
40285;BME280;25997;50.214;19.354;2024-01-11T08:47:05;98533.75;;;-3.20;43.77
40285;BME280;25997;50.214;19.354;2024-01-11T08:50:07;98537.63;;;-3.15;43.56
40285;BME280;25997;50.214;19.354;2024-01-11T08:53:12;98545.72;;;-3.10;43.57
40285;BME280;25997;50.214;19.354;2024-01-11T08:56:14;98571.38;;;-3.21;43.52
40285;BME280;25997;50.214;19.354;2024-01-11T08:59:18;98567.69;;;-3.04;43.64
40285;BME280;25997;50.214;19.354;2024-01-11T09:02:22;98581.72;;;-2.90;42.71
40285;BME280;25997;50.214;19.354;2024-01-11T09:05:24;98574.59;;;-2.54;43.11
40285;BME280;25997;50.214;19.354;2024-01-11T09:08:26;98564.56;;;-2.61;42.52
40285;BME280;25997;50.214;19.354;2024-01-11T09:11:29;98567.66;;;-2.25;42.67
40285;BME280;25997;50.214;19.354;2024-01-11T09:14:32;98563.00;;;-2.19;41.85
40285;BME280;25997;50.214;19.354;2024-01-11T09:17:36;98558.25;;;-2.14;42.10
40285;BME280;25997;50.214;19.354;2024-01-11T09:20:39;98568.78;;;-2.21;41.82
40285;BME280;25997;50.214;19.354;2024-01-11T09:23:42;98585.31;;;-1.78;41.75
40285;BME280;25997;50.214;19.354;2024-01-11T09:26:45;98567.16;;;-1.69;41.18
40285;BME280;25997;50.214;19.354;2024-01-11T09:29:47;98564.44;;;-1.60;41.04
40285;BME280;25997;50.214;19.354;2024-01-11T09:32:51;98559.72;;;-1.44;40.55
40285;BME280;25997;50.214;19.354;2024-01-11T09:35:54;98560.19;;;-1.28;40.74
40285;BME280;25997;50.214;19.354;2024-01-11T09:38:57;98537.97;;;-1.16;40.06
40285;BME280;25997;50.214;19.354;2024-01-11T09:42:05;98545.41;;;-1.09;40.18
40285;BME280;25997;50.214;19.354;2024-01-11T09:45:09;98552.69;;;-0.93;39.63
40285;BME280;25997;50.214;19.354;2024-01-11T09:48:14;98543.06;;;-0.84;39.07
40285;BME280;25997;50.214;19.354;2024-01-11T09:51:17;98537.72;;;-0.98;39.10
40285;BME280;25997;50.214;19.354;2024-01-11T09:54:20;98530.72;;;-1.10;38.96
40285;BME280;25997;50.214;19.354;2024-01-11T09:57:29;98518.03;;;-0.97;38.42
40285;BME280;25997;50.214;19.354;2024-01-11T10:00:34;98518.81;;;-0.98;38.41
40285;BME280;25997;50.214;19.354;2024-01-11T10:03:39;98509.84;;;-0.70;38.20
40285;BME280;25997;50.214;19.354;2024-01-11T10:06:43;98521.53;;;-0.63;37.60
40285;BME280;25997;50.214;19.354;2024-01-11T10:09:45;98505.56;;;-0.81;37.47
40285;BME280;25997;50.214;19.354;2024-01-11T10:12:48;98497.06;;;-0.68;37.27
40285;BME280;25997;50.214;19.354;2024-01-11T10:15:51;98497.25;;;-0.77;37.32
40285;BME280;25997;50.214;19.354;2024-01-11T10:18:55;98502.03;;;-0.60;36.96
40285;BME280;25997;50.214;19.354;2024-01-11T10:21:58;98499.81;;;-0.44;37.51
40285;BME280;25997;50.214;19.354;2024-01-11T10:25:11;98489.41;;;-0.45;36.64
40285;BME280;25997;50.214;19.354;2024-01-11T10:28:14;98479.09;;;-0.22;37.02
40285;BME280;25997;50.214;19.354;2024-01-11T10:31:17;98479.72;;;-0.03;36.76
40285;BME280;25997;50.214;19.354;2024-01-11T10:34:23;98481.06;;;0.15;37.19
40285;BME280;25997;50.214;19.354;2024-01-11T10:37:26;98488.88;;;-0.06;36.85
40285;BME280;25997;50.214;19.354;2024-01-11T10:40:29;98461.66;;;0.09;36.79
40285;BME280;25997;50.214;19.354;2024-01-11T10:43:35;98474.53;;;0.20;36.86
40285;BME280;25997;50.214;19.354;2024-01-11T10:46:38;98474.56;;;0.09;37.19
40285;BME280;25997;50.214;19.354;2024-01-11T10:49:44;98474.84;;;0.36;37.45
40285;BME280;25997;50.214;19.354;2024-01-11T10:53:08;98478.47;;;0.50;36.26
40285;BME280;25997;50.214;19.354;2024-01-11T10:56:15;98472.19;;;0.46;37.02
40285;BME280;25997;50.214;19.354;2024-01-11T10:59:18;98468.34;;;0.41;37.15
40285;BME280;25997;50.214;19.354;2024-01-11T11:02:26;98451.03;;;0.40;37.48
40285;BME280;25997;50.214;19.354;2024-01-11T11:05:30;98434.34;;;0.35;37.33
40285;BME280;25997;50.214;19.354;2024-01-11T11:08:36;98435.69;;;0.42;37.98
40285;BME280;25997;50.214;19.354;2024-01-11T11:11:39;98454.53;;;0.41;37.54
40285;BME280;25997;50.214;19.354;2024-01-11T11:14:43;98444.19;;;0.41;37.13
40285;BME280;25997;50.214;19.354;2024-01-11T11:17:49;98440.84;;;0.30;37.16
40285;BME280;25997;50.214;19.354;2024-01-11T11:20:55;98448.34;;;0.39;36.77
40285;BME280;25997;50.214;19.354;2024-01-11T11:23:58;98439.75;;;0.04;36.69
40285;BME280;25997;50.214;19.354;2024-01-11T11:27:00;98421.59;;;-0.09;36.05
40285;BME280;25997;50.214;19.354;2024-01-11T11:30:04;98417.06;;;0.23;36.11
40285;BME280;25997;50.214;19.354;2024-01-11T11:33:10;98409.19;;;0.33;36.39
40285;BME280;25997;50.214;19.354;2024-01-11T11:36:17;98413.69;;;0.35;35.48
40285;BME280;25997;50.214;19.354;2024-01-11T11:39:20;98408.94;;;0.53;35.91
40285;BME280;25997;50.214;19.354;2024-01-11T11:42:22;98402.63;;;0.61;36.13
40285;BME280;25997;50.214;19.354;2024-01-11T11:45:27;98395.88;;;0.63;36.39
40285;BME280;25997;50.214;19.354;2024-01-11T11:48:48;98390.16;;;0.56;35.72
40285;BME280;25997;50.214;19.354;2024-01-11T11:51:56;98395.72;;;0.48;35.88
40285;BME280;25997;50.214;19.354;2024-01-11T11:54:59;98384.13;;;0.43;36.37
40285;BME280;25997;50.214;19.354;2024-01-11T11:58:02;98376.13;;;0.64;36.73
40285;BME280;25997;50.214;19.354;2024-01-11T12:01:05;98371.41;;;0.83;36.67
40285;BME280;25997;50.214;19.354;2024-01-11T12:04:08;98370.41;;;0.56;35.68
40285;BME280;25997;50.214;19.354;2024-01-11T12:07:12;98363.03;;;0.37;36.50
40285;BME280;25997;50.214;19.354;2024-01-11T12:10:14;98338.31;;;0.77;36.50
40285;BME280;25997;50.214;19.354;2024-01-11T12:13:17;98346.25;;;0.80;36.53
40285;BME280;25997;50.214;19.354;2024-01-11T12:16:21;98347.94;;;1.04;36.40
40285;BME280;25997;50.214;19.354;2024-01-11T12:19:23;98350.09;;;0.98;36.29
40285;BME280;25997;50.214;19.354;2024-01-11T12:22:27;98341.22;;;0.82;36.05
40285;BME280;25997;50.214;19.354;2024-01-11T12:25:30;98342.41;;;0.87;36.41
40285;BME280;25997;50.214;19.354;2024-01-11T12:28:33;98350.88;;;0.84;36.32
40285;BME280;25997;50.214;19.354;2024-01-11T12:31:36;98330.25;;;0.73;36.58
40285;BME280;25997;50.214;19.354;2024-01-11T12:34:39;98326.22;;;0.89;36.71
40285;BME280;25997;50.214;19.354;2024-01-11T12:37:53;98326.22;;;1.02;36.44
40285;BME280;25997;50.214;19.354;2024-01-11T12:40:56;98326.06;;;0.75;36.95
40285;BME280;25997;50.214;19.354;2024-01-11T12:43:58;98327.59;;;0.84;36.71
40285;BME280;25997;50.214;19.354;2024-01-11T12:47:01;98323.03;;;0.93;37.18
40285;BME280;25997;50.214;19.354;2024-01-11T12:50:05;98317.09;;;0.94;37.28
40285;BME280;25997;50.214;19.354;2024-01-11T12:53:10;98317.31;;;0.97;37.34
40285;BME280;25997;50.214;19.354;2024-01-11T12:56:19;98315.88;;;0.89;37.21
40285;BME280;25997;50.214;19.354;2024-01-11T12:59:25;98309.34;;;0.94;37.13
40285;BME280;25997;50.214;19.354;2024-01-11T13:02:28;98302.34;;;0.93;37.74
40285;BME280;25997;50.214;19.354;2024-01-11T13:05:35;98296.47;;;0.83;37.39
40285;BME280;25997;50.214;19.354;2024-01-11T13:08:39;98285.81;;;0.78;37.95
40285;BME280;25997;50.214;19.354;2024-01-11T13:11:43;98270.88;;;0.99;38.00
40285;BME280;25997;50.214;19.354;2024-01-11T13:14:45;98266.06;;;0.79;38.10
40285;BME280;25997;50.214;19.354;2024-01-11T13:17:48;98270.19;;;0.64;38.03
40285;BME280;25997;50.214;19.354;2024-01-11T13:20:50;98265.69;;;0.48;38.46
40285;BME280;25997;50.214;19.354;2024-01-11T13:27:37;98255.13;;;0.45;38.64
40285;BME280;25997;50.214;19.354;2024-01-11T13:30:40;98262.06;;;0.21;38.90
40285;BME280;25997;50.214;19.354;2024-01-11T13:33:43;98264.78;;;0.36;39.04
40285;BME280;25997;50.214;19.354;2024-01-11T13:36:45;98264.00;;;0.12;39.13
40285;BME280;25997;50.214;19.354;2024-01-11T13:39:48;98265.69;;;0.12;39.25
40285;BME280;25997;50.214;19.354;2024-01-11T13:42:52;98276.91;;;0.12;39.34
40285;BME280;25997;50.214;19.354;2024-01-11T13:45:54;98279.94;;;0.07;39.59
40285;BME280;25997;50.214;19.354;2024-01-11T13:48:58;98294.94;;;0.24;39.64
40285;BME280;25997;50.214;19.354;2024-01-11T13:52:00;98284.31;;;0.19;39.54
40285;BME280;25997;50.214;19.354;2024-01-11T13:55:03;98282.31;;;0.15;39.74
40285;BME280;25997;50.214;19.354;2024-01-11T13:58:07;98289.06;;;0.02;39.54
40285;BME280;25997;50.214;19.354;2024-01-11T14:01:10;98281.59;;;-0.07;40.00
40285;BME280;25997;50.214;19.354;2024-01-11T14:04:14;98276.47;;;-0.30;40.21
40285;BME280;25997;50.214;19.354;2024-01-11T14:07:17;98276.78;;;-0.26;40.14
40285;BME280;25997;50.214;19.354;2024-01-11T14:10:19;98282.28;;;-0.21;40.46
40285;BME280;25997;50.214;19.354;2024-01-11T14:13:24;98278.41;;;-0.51;40.70
40285;BME280;25997;50.214;19.354;2024-01-11T14:16:26;98285.69;;;-0.34;40.69
40285;BME280;25997;50.214;19.354;2024-01-11T14:19:29;98288.94;;;-0.59;41.20
40285;BME280;25997;50.214;19.354;2024-01-11T14:22:31;98288.19;;;-0.58;41.17
40285;BME280;25997;50.214;19.354;2024-01-11T14:25:34;98287.38;;;-0.46;41.05
40285;BME280;25997;50.214;19.354;2024-01-11T14:28:39;98305.09;;;-0.50;40.88
40285;BME280;25997;50.214;19.354;2024-01-11T14:31:43;98287.94;;;-0.38;40.87
40285;BME280;25997;50.214;19.354;2024-01-11T14:34:46;98295.34;;;-0.43;40.97
40285;BME280;25997;50.214;19.354;2024-01-11T14:37:48;98308.78;;;-0.58;41.33
40285;BME280;25997;50.214;19.354;2024-01-11T14:40:51;98304.75;;;-0.66;42.14
40285;BME280;25997;50.214;19.354;2024-01-11T14:43:55;98321.78;;;-0.68;42.17
40285;BME280;25997;50.214;19.354;2024-01-11T14:46:57;98320.88;;;-0.69;42.53
40285;BME280;25997;50.214;19.354;2024-01-11T14:50:00;98328.75;;;-0.67;42.29
40285;BME280;25997;50.214;19.354;2024-01-11T14:53:04;98332.00;;;-0.70;42.16
40285;BME280;25997;50.214;19.354;2024-01-11T14:56:07;98346.00;;;-0.78;42.51
40285;BME280;25997;50.214;19.354;2024-01-11T14:59:11;98345.88;;;-0.68;42.66
40285;BME280;25997;50.214;19.354;2024-01-11T15:02:13;98343.66;;;-0.52;42.27
40285;BME280;25997;50.214;19.354;2024-01-11T15:05:16;98342.97;;;-0.61;42.76
40285;BME280;25997;50.214;19.354;2024-01-11T15:08:19;98341.50;;;-0.57;43.00
40285;BME280;25997;50.214;19.354;2024-01-11T15:11:21;98344.19;;;-0.79;43.72
40285;BME280;25997;50.214;19.354;2024-01-11T15:14:25;98331.31;;;-0.79;43.51
40285;BME280;25997;50.214;19.354;2024-01-11T15:17:28;98341.63;;;-0.79;43.83
40285;BME280;25997;50.214;19.354;2024-01-11T15:20:31;98334.56;;;-0.81;43.73
40285;BME280;25997;50.214;19.354;2024-01-11T15:23:34;98328.84;;;-0.77;44.21
40285;BME280;25997;50.214;19.354;2024-01-11T15:26:36;98320.53;;;-0.73;44.22
40285;BME280;25997;50.214;19.354;2024-01-11T15:29:40;98333.19;;;-0.88;44.47
40285;BME280;25997;50.214;19.354;2024-01-11T15:32:43;98335.00;;;-0.87;44.49
40285;BME280;25997;50.214;19.354;2024-01-11T15:35:45;98340.81;;;-0.89;45.10
40285;BME280;25997;50.214;19.354;2024-01-11T15:38:49;98347.34;;;-0.83;45.17
40285;BME280;25997;50.214;19.354;2024-01-11T15:41:52;98348.41;;;-0.91;45.38
40285;BME280;25997;50.214;19.354;2024-01-11T15:44:56;98351.91;;;-0.90;45.32
40285;BME280;25997;50.214;19.354;2024-01-11T15:47:58;98356.16;;;-0.91;45.51
40285;BME280;25997;50.214;19.354;2024-01-11T15:51:01;98354.94;;;-0.96;45.83
40285;BME280;25997;50.214;19.354;2024-01-11T15:54:04;98358.94;;;-1.00;46.09
40285;BME280;25997;50.214;19.354;2024-01-11T15:57:06;98361.16;;;-1.04;46.28
40285;BME280;25997;50.214;19.354;2024-01-11T16:00:12;98353.91;;;-1.10;46.68
40285;BME280;25997;50.214;19.354;2024-01-11T16:03:14;98355.91;;;-1.06;46.52
40285;BME280;25997;50.214;19.354;2024-01-11T16:06:17;98350.31;;;-1.12;47.07